Kraainem, Belgium
Current Conditions -  °F | °C
As of 1:20 AM on Monday 24 Nov 2014 (Local Time) from EBBR Reporting Station
Drizzle Drizzle  
Wind Chill: 44°   Ceiling: 700
Heat Index: 48°   Visibility: 3mi
Dew Point: 46°   Wind: 10mph
Humidity: 93%   Direction: 320°NW
Pressure: 30.09"   Gusts: NA
Location:  50.86°N, 4.47°E
Report Text: EBBR 240020Z 32009KT 5000 -DZ SCT006 BKN007 09/08 Q1019 TEMPO 2000 DZRA BKN004
Loading
Personal Weather Stations






























Interactive Weather Map New forecast layout! Learn more

10-Day Weather Forecast

Advertisements
Track Severe Weather on mobile